Time;durP1;ratioP1;P1;durP2;ratioP2;P2;SDS_P1;SDS_P2;PMS_P1;PMS_P2;Temp;Humidity;BMP_temperature;BMP_pressure;BME280_temperature;BME280_humidity;BME280_pressure;Samples;Min_cycle;Max_cycle;Signal;HPM_P1;HPM_P2
2021/07/05 00:00:11;;;;;;;4.18;3.85;;;;;;;;;;6247777;23;20405;-58
2021/07/05 00:02:36;;;;;;;3.95;3.75;;;;;;;;;;6247538;23;20329;-59
2021/07/05 00:05:03;;;;;;;4.50;4.18;;;;;;;;;;6220892;23;20015;-58
2021/07/05 00:07:29;;;;;;;4.38;3.97;;;;;;;;;;6247543;23;20007;-59
2021/07/05 00:09:54;;;;;;;3.80;3.60;;;;;;;;;;6247548;23;19996;-59
2021/07/05 00:12:19;;;;;;;4.05;3.70;;;;;;;;;;6247295;23;20019;-59
2021/07/05 00:14:45;;;;;;;3.95;3.65;;;;;;;;;;6247413;23;20030;-58
2021/07/05 00:17:11;;;;;;;4.28;4.00;;;;;;;;;;6247677;23;20004;-59
2021/07/05 00:19:36;;;;;;;5.07;3.65;;;;;;;;;;6247782;23;20328;-59
2021/07/05 00:22:02;;;;;;;4.13;3.92;;;;;;;;;;6247522;23;20003;-59
2021/07/05 00:24:27;;;;;;;4.10;3.90;;;;;;;;;;6247632;23;20409;-59
2021/07/05 00:26:53;;;;;;;4.90;4.50;;;;;;;;;;6247622;23;19996;-59
2021/07/05 00:29:18;;;;;;;4.45;4.15;;;;;;;;;;6220513;23;20494;-58
2021/07/05 00:31:44;;;;;;;4.18;3.92;;;;;;;;;;6247321;23;20075;-58
2021/07/05 00:34:09;;;;;;;4.53;4.13;;;;;;;;;;6220540;23;20386;-58
2021/07/05 00:36:35;;;;;;;4.50;4.15;;;;;;;;;;6247156;23;20008;-59
2021/07/05 00:39:00;;;;;;;4.32;4.03;;;;;;;;;;6247073;23;20360;-58
2021/07/05 00:41:29;;;;;;;4.70;4.30;;;;;;;;;;6247077;23;20425;-58
2021/07/05 00:43:54;;;;;;;4.35;3.95;;;;;;;;;;6247030;23;20004;-59
2021/07/05 00:46:20;;;;;;;4.90;4.30;;;;;;;;;;6247099;23;19992;-59
2021/07/05 00:48:45;;;;;;;4.38;3.85;;;;;;;;;;6247372;23;20111;-59
2021/07/05 00:51:11;;;;;;;4.15;3.90;;;;;;;;;;6247046;23;19996;-59
2021/07/05 00:53:36;;;;;;;4.13;3.92;;;;;;;;;;6220329;23;20004;-59
2021/07/05 00:56:05;;;;;;;4.18;3.88;;;;;;;;;;6247145;23;20004;-59
2021/07/05 00:58:31;;;;;;;4.53;4.22;;;;;;;;;;6246902;23;20008;-59
2021/07/05 01:00:56;;;;;;;3.67;3.47;;;;;;;;;;6247083;23;20011;-59
2021/07/05 01:03:22;;;;;;;3.78;3.58;;;;;;;;;;6247062;23;20004;-59
2021/07/05 01:05:47;;;;;;;3.90;3.65;;;;;;;;;;6246795;23;20035;-59
2021/07/05 01:08:13;;;;;;;4.00;3.70;;;;;;;;;;6246934;23;20011;-59
2021/07/05 01:10:38;;;;;;;3.83;3.63;;;;;;;;;;6246933;23;20007;-59
2021/07/05 01:13:04;;;;;;;4.15;3.85;;;;;;;;;;6246254;23;20326;-59
2021/07/05 01:15:31;;;;;;;4.47;4.18;;;;;;;;;;6246954;23;20004;-59
2021/07/05 01:17:59;;;;;;;4.40;4.10;;;;;;;;;;6247135;23;20027;-59
2021/07/05 01:20:28;;;;;;;4.10;3.90;;;;;;;;;;6246952;23;20007;-58
2021/07/05 01:22:54;;;;;;;4.73;4.33;;;;;;;;;;6247203;23;20004;-58
2021/07/05 01:25:21;;;;;;;4.03;3.78;;;;;;;;;;6246617;23;20261;-58
2021/07/05 01:27:47;;;;;;;3.55;3.35;;;;;;;;;;6246894;23;20455;-58
2021/07/05 01:30:14;;;;;;;3.92;3.72;;;;;;;;;;6219808;23;20003;-58
2021/07/05 01:32:40;;;;;;;3.50;3.30;;;;;;;;;;6246782;23;20015;-58
2021/07/05 01:35:06;;;;;;;3.80;3.50;;;;;;;;;;6246794;23;20000;-58
2021/07/05 01:37:32;;;;;;;3.60;3.40;;;;;;;;;;6219816;23;20008;-58
2021/07/05 01:39:58;;;;;;;3.33;3.13;;;;;;;;;;6246993;23;20008;-59
2021/07/05 01:42:23;;;;;;;3.97;3.67;;;;;;;;;;6247010;23;20036;-59
2021/07/05 01:44:49;;;;;;;3.55;3.35;;;;;;;;;;6246880;23;19996;-59
2021/07/05 01:47:15;;;;;;;3.80;3.50;;;;;;;;;;6246780;23;20087;-59
2021/07/05 01:49:44;;;;;;;4.00;3.70;;;;;;;;;;6246602;23;20324;-59
2021/07/05 01:52:10;;;;;;;4.03;3.72;;;;;;;;;;6246674;23;20000;-59
2021/07/05 01:54:35;;;;;;;4.53;4.20;;;;;;;;;;6246067;23;20046;-59
2021/07/05 01:57:01;;;;;;;4.60;4.20;;;;;;;;;;6219578;23;20015;-58
2021/07/05 01:59:26;;;;;;;4.65;4.30;;;;;;;;;;6246390;23;19996;-59
2021/07/05 02:01:52;;;;;;;4.22;3.70;;;;;;;;;;6246468;23;20087;-59
2021/07/05 02:04:17;;;;;;;4.13;3.70;;;;;;;;;;6246506;23;20007;-58
2021/07/05 02:06:43;;;;;;;3.92;3.63;;;;;;;;;;6219672;23;20004;-59
2021/07/05 02:09:08;;;;;;;4.30;3.78;;;;;;;;;;6246152;23;19996;-59
2021/07/05 02:11:34;;;;;;;4.43;4.13;;;;;;;;;;6219448;23;20008;-59
2021/07/05 02:14:00;;;;;;;3.83;3.53;;;;;;;;;;6246472;23;20020;-59
2021/07/05 02:16:26;;;;;;;3.33;3.13;;;;;;;;;;6246426;23;20436;-59
2021/07/05 02:18:53;;;;;;;3.85;3.65;;;;;;;;;;6246389;23;20020;-59
2021/07/05 02:21:19;;;;;;;3.53;3.33;;;;;;;;;;6246107;23;20004;-58
2021/07/05 02:23:44;;;;;;;3.47;3.28;;;;;;;;;;6219679;23;20046;-58
2021/07/05 02:26:09;;;;;;;3.90;3.60;;;;;;;;;;6219429;23;20099;-59
2021/07/05 02:28:36;;;;;;;3.75;3.55;;;;;;;;;;6246222;23;19999;-58
2021/07/05 02:31:03;;;;;;;3.90;3.60;;;;;;;;;;6245929;23;20320;-58
2021/07/05 02:33:31;;;;;;;4.45;4.15;;;;;;;;;;6246309;23;20019;-58
2021/07/05 02:35:57;;;;;;;4.13;3.83;;;;;;;;;;6219457;23;20015;-58
2021/07/05 02:38:22;;;;;;;3.95;3.72;;;;;;;;;;6246262;23;20008;-58
2021/07/05 02:40:50;;;;;;;4.07;3.65;;;;;;;;;;6246145;23;20035;-59
2021/07/05 02:43:16;;;;;;;3.72;3.53;;;;;;;;;;6219544;23;20024;-58
2021/07/05 02:45:42;;;;;;;3.83;3.50;;;;;;;;;;6246166;23;20004;-58
2021/07/05 02:48:09;;;;;;;4.03;3.72;;;;;;;;;;6246050;23;19997;-59
2021/07/05 02:50:36;;;;;;;3.97;3.78;;;;;;;;;;6245884;23;20004;-60
2021/07/05 02:53:02;;;;;;;4.05;3.75;;;;;;;;;;6246158;23;20306;-59
2021/07/05 02:55:27;;;;;;;4.55;3.80;;;;;;;;;;6219399;23;20066;-58
2021/07/05 02:57:53;;;;;;;3.83;3.63;;;;;;;;;;6245937;23;20004;-58
2021/07/05 03:00:20;;;;;;;3.95;3.70;;;;;;;;;;6245882;23;20012;-58
2021/07/05 03:02:46;;;;;;;3.92;3.72;;;;;;;;;;6246223;23;20007;-59
2021/07/05 03:05:13;;;;;;;4.20;3.88;;;;;;;;;;6246174;23;20035;-59
2021/07/05 03:07:39;;;;;;;4.10;3.80;;;;;;;;;;6246371;23;20007;-59
2021/07/05 03:10:09;;;;;;;3.78;3.55;;;;;;;;;;6246261;23;20023;-58
2021/07/05 03:12:34;;;;;;;3.90;3.70;;;;;;;;;;6246193;23;20008;-59
2021/07/05 03:15:00;;;;;;;4.10;3.58;;;;;;;;;;6245775;23;20004;-59
2021/07/05 03:17:26;;;;;;;4.00;3.70;;;;;;;;;;6246067;23;20012;-59
2021/07/05 03:19:51;;;;;;;5.22;4.15;;;;;;;;;;6246033;23;20009;-59
2021/07/05 03:22:17;;;;;;;5.05;4.50;;;;;;;;;;6219450;23;20004;-59
2021/07/05 03:24:44;;;;;;;5.70;4.20;;;;;;;;;;6218791;23;20018;-59
2021/07/05 03:27:10;;;;;;;4.68;4.07;;;;;;;;;;6246040;23;19996;-59
2021/07/05 03:29:36;;;;;;;4.78;4.30;;;;;;;;;;6246136;23;20004;-58
2021/07/05 03:32:03;;;;;;;6.38;4.65;;;;;;;;;;6245930;23;20202;-59
2021/07/05 03:34:28;;;;;;;9.77;5.07;;;;;;;;;;6246102;23;20011;-58
2021/07/05 03:36:54;;;;;;;7.95;5.00;;;;;;;;;;6245846;23;20312;-59
2021/07/05 03:39:19;;;;;;;8.38;5.70;;;;;;;;;;6245689;23;20024;-59
2021/07/05 03:41:45;;;;;;;12.15;6.25;;;;;;;;;;6245656;23;20003;-58
2021/07/05 03:44:11;;;;;;;11.73;6.65;;;;;;;;;;6247040;23;20011;-59
2021/07/05 03:46:37;;;;;;;7.25;5.07;;;;;;;;;;6247312;23;20118;-59
2021/07/05 03:49:03;;;;;;;9.73;5.40;;;;;;;;;;6220384;23;20019;-58
2021/07/05 03:51:28;;;;;;;7.97;5.07;;;;;;;;;;6247818;23;20050;-59
2021/07/05 03:53:56;;;;;;;7.40;5.20;;;;;;;;;;6247882;23;20004;-58
2021/07/05 03:56:22;;;;;;;6.88;4.93;;;;;;;;;;6247753;23;20023;-58
2021/07/05 03:58:48;;;;;;;7.15;4.78;;;;;;;;;;6247759;23;20008;-58
2021/07/05 04:01:13;;;;;;;5.05;4.50;;;;;;;;;;6247602;23;19997;-59
2021/07/05 04:03:39;;;;;;;5.22;4.00;;;;;;;;;;6247313;23;20008;-59
2021/07/05 04:06:04;;;;;;;6.30;4.60;;;;;;;;;;6220739;23;20073;-59
2021/07/05 04:08:34;;;;;;;5.25;4.72;;;;;;;;;;6247584;23;20012;-59
2021/07/05 04:11:00;;;;;;;5.82;4.55;;;;;;;;;;6247697;23;20038;-59
2021/07/05 04:13:27;;;;;;;4.82;4.43;;;;;;;;;;6246598;23;20012;-59
2021/07/05 04:15:53;;;;;;;4.60;4.25;;;;;;;;;;6247547;23;20451;-59
2021/07/05 04:18:19;;;;;;;5.60;4.65;;;;;;;;;;6247609;23;20012;-59
2021/07/05 04:20:44;;;;;;;4.43;4.13;;;;;;;;;;6247300;23;20028;-59
2021/07/05 04:23:10;;;;;;;4.50;4.10;;;;;;;;;;6247204;23;20087;-58
2021/07/05 04:25:35;;;;;;;5.38;4.45;;;;;;;;;;6246941;23;20000;-59
2021/07/05 04:28:02;;;;;;;4.93;4.45;;;;;;;;;;6247070;23;20000;-59
2021/07/05 04:30:27;;;;;;;6.25;4.82;;;;;;;;;;6247092;23;20491;-59
2021/07/05 04:32:53;;;;;;;4.53;4.22;;;;;;;;;;6247088;23;20024;-59
2021/07/05 04:35:19;;;;;;;7.80;4.35;;;;;;;;;;6246996;23;20000;-58
2021/07/05 04:37:45;;;;;;;6.95;3.85;;;;;;;;;;6247221;23;20015;-59
2021/07/05 04:40:12;;;;;;;4.55;4.10;;;;;;;;;;6247197;23;19995;-59
2021/07/05 04:42:39;;;;;;;4.28;4.03;;;;;;;;;;6246930;23;20015;-59
2021/07/05 04:45:06;;;;;;;4.60;4.22;;;;;;;;;;6246917;23;20004;-58
2021/07/05 04:47:32;;;;;;;4.30;4.00;;;;;;;;;;6246946;23;20024;-58
2021/07/05 04:49:58;;;;;;;5.05;4.55;;;;;;;;;;6246912;23;19993;-59
2021/07/05 04:52:23;;;;;;;4.43;4.10;;;;;;;;;;6246780;23;20011;-58
2021/07/05 04:54:49;;;;;;;4.47;4.15;;;;;;;;;;6246216;23;20034;-58
2021/07/05 04:57:14;;;;;;;5.20;4.65;;;;;;;;;;6246704;23;20027;-59
2021/07/05 04:59:40;;;;;;;5.22;4.68;;;;;;;;;;6246977;23;20328;-58
2021/07/05 05:02:05;;;;;;;5.60;4.95;;;;;;;;;;6246877;23;20008;-59
2021/07/05 05:04:30;;;;;;;6.05;4.78;;;;;;;;;;6246738;23;20001;-59
2021/07/05 05:06:56;;;;;;;7.15;5.28;;;;;;;;;;6246751;23;20305;-58
2021/07/05 05:09:24;;;;;;;9.90;5.32;;;;;;;;;;6246793;23;19999;-59
2021/07/05 05:11:52;;;;;;;10.02;5.78;;;;;;;;;;6246713;23;20133;-59
2021/07/05 05:14:18;;;;;;;8.40;5.75;;;;;;;;;;6246673;23;20062;-58
2021/07/05 05:16:44;;;;;;;7.55;5.20;;;;;;;;;;6220049;23;20024;-59
2021/07/05 05:19:10;;;;;;;7.35;5.53;;;;;;;;;;6246795;23;20082;-58
2021/07/05 05:21:35;;;;;;;11.20;5.93;;;;;;;;;;6246779;23;20062;-59
2021/07/05 05:24:01;;;;;;;6.10;4.93;;;;;;;;;;6246466;23;20003;-59
2021/07/05 05:26:27;;;;;;;6.47;5.07;;;;;;;;;;6246660;23;20424;-58
2021/07/05 05:28:53;;;;;;;6.53;5.35;;;;;;;;;;6219784;23;20009;-58
2021/07/05 05:31:19;;;;;;;5.60;5.03;;;;;;;;;;6246588;23;20026;-58
2021/07/05 05:33:44;;;;;;;6.65;4.90;;;;;;;;;;6246489;23;20420;-59
2021/07/05 05:36:10;;;;;;;6.43;5.43;;;;;;;;;;6246034;23;20344;-59
2021/07/05 05:38:35;;;;;;;6.88;5.60;;;;;;;;;;6219636;23;20085;-59
2021/07/05 05:41:01;;;;;;;7.95;5.70;;;;;;;;;;6219609;23;20008;-59
2021/07/05 05:43:26;;;;;;;7.38;6.30;;;;;;;;;;6246465;23;20000;-58
2021/07/05 05:45:52;;;;;;;7.43;6.25;;;;;;;;;;6246357;23;20014;-58
2021/07/05 05:48:17;;;;;;;8.23;6.45;;;;;;;;;;6246294;23;20030;-59
2021/07/05 05:50:43;;;;;;;11.02;6.35;;;;;;;;;;6246160;23;20046;-59
2021/07/05 05:53:09;;;;;;;8.32;7.45;;;;;;;;;;6246259;23;20054;-58
2021/07/05 05:55:35;;;;;;;12.07;8.57;;;;;;;;;;6219598;23;20004;-58
2021/07/05 05:58:00;;;;;;;11.40;8.27;;;;;;;;;;6246400;23;20004;-59
2021/07/05 06:00:26;;;;;;;9.88;8.52;;;;;;;;;;6246374;23;20008;-58
2021/07/05 06:02:53;;;;;;;14.52;9.50;;;;;;;;;;6246290;23;20007;-59
2021/07/05 06:05:19;;;;;;;11.95;9.60;;;;;;;;;;6245881;23;20004;-58
2021/07/05 06:07:49;;;;;;;11.60;9.30;;;;;;;;;;6246205;23;20003;-59
2021/07/05 06:10:15;;;;;;;13.93;9.38;;;;;;;;;;6246240;23;20000;-58
2021/07/05 06:12:41;;;;;;;13.52;9.65;;;;;;;;;;6245557;23;20407;-59
2021/07/05 06:15:08;;;;;;;12.18;9.20;;;;;;;;;;6246128;23;20004;-58
2021/07/05 06:17:34;;;;;;;11.43;8.93;;;;;;;;;;6246161;23;19996;-59
2021/07/05 06:19:59;;;;;;;10.32;8.02;;;;;;;;;;6246115;23;20008;-58
2021/07/05 06:22:29;;;;;;;9.10;7.50;;;;;;;;;;6246158;23;20073;-59
2021/07/05 06:24:55;;;;;;;8.90;7.82;;;;;;;;;;6219361;23;20062;-58
2021/07/05 06:27:21;;;;;;;8.10;7.30;;;;;;;;;;6246378;23;19996;-58
2021/07/05 06:29:46;;;;;;;9.75;7.63;;;;;;;;;;6245565;23;20084;-59
2021/07/05 06:32:12;;;;;;;8.48;7.53;;;;;;;;;;6246009;23;19996;-58
2021/07/05 06:34:39;;;;;;;7.85;7.10;;;;;;;;;;6219203;23;20008;-59
2021/07/05 06:37:05;;;;;;;9.48;6.95;;;;;;;;;;6246048;23;19996;-59
2021/07/05 06:39:30;;;;;;;9.35;6.60;;;;;;;;;;6245937;23;20015;-59
2021/07/05 06:41:55;;;;;;;8.40;7.22;;;;;;;;;;6245943;23;20310;-59
2021/07/05 06:44:21;;;;;;;8.70;7.32;;;;;;;;;;6245813;23;20490;-58
2021/07/05 06:46:46;;;;;;;12.48;7.50;;;;;;;;;;6245926;23;19992;-58
2021/07/05 06:49:17;;;;;;;10.00;7.32;;;;;;;;;;6219066;23;20043;-59
2021/07/05 06:51:43;;;;;;;9.98;7.53;;;;;;;;;;6245835;23;20004;-58
2021/07/05 06:54:08;;;;;;;9.27;7.75;;;;;;;;;;6245959;23;20024;-59
2021/07/05 06:56:34;;;;;;;15.18;9.05;;;;;;;;;;6245880;23;20364;-58
2021/07/05 06:58:59;;;;;;;12.25;8.25;;;;;;;;;;6219153;23;20020;-58
2021/07/05 07:01:25;;;;;;;9.65;7.78;;;;;;;;;;6245941;23;20004;-58
2021/07/05 07:03:50;;;;;;;13.60;8.10;;;;;;;;;;6245955;23;20020;-59
2021/07/05 07:06:16;;;;;;;11.93;7.30;;;;;;;;;;6245665;23;20004;-58
2021/07/05 07:08:41;;;;;;;8.20;6.53;;;;;;;;;;6245723;23;20003;-59
2021/07/05 07:11:07;;;;;;;7.97;6.45;;;;;;;;;;6245713;23;20001;-58
2021/07/05 07:13:32;;;;;;;11.32;7.18;;;;;;;;;;6213476;23;20345;-59
2021/07/05 07:16:00;;;;;;;9.10;6.30;;;;;;;;;;6215606;23;20035;-58
2021/07/05 07:20:58;;;;;;;6.68;5.10;;;;;;;;;;6217555;23;20009;-58
2021/07/05 07:23:25;;;;;;;5.78;4.38;;;;;;;;;;6217468;23;20003;-59
2021/07/05 07:25:51;;;;;;;5.65;4.80;;;;;;;;;;6216870;23;20038;-59
2021/07/05 07:28:16;;;;;;;5.57;4.95;;;;;;;;;;6217472;23;20028;-59
2021/07/05 07:30:42;;;;;;;5.32;4.90;;;;;;;;;;6217388;23;20005;-58
2021/07/05 07:33:07;;;;;;;6.93;4.50;;;;;;;;;;6217334;23;19997;-58
2021/07/05 07:35:33;;;;;;;4.03;3.72;;;;;;;;;;6217253;23;20310;-59
2021/07/05 07:37:59;;;;;;;4.05;3.75;;;;;;;;;;6215755;23;20000;-59
2021/07/05 07:40:28;;;;;;;3.80;3.47;;;;;;;;;;6217289;23;20492;-59
2021/07/05 07:42:53;;;;;;;4.18;3.70;;;;;;;;;;6217127;23;20425;-58
2021/07/05 07:45:19;;;;;;;4.05;3.70;;;;;;;;;;6217149;23;20094;-58
2021/07/05 07:47:45;;;;;;;3.75;3.55;;;;;;;;;;6217329;23;19997;-58
2021/07/05 07:50:11;;;;;;;4.10;3.75;;;;;;;;;;6217335;23;20446;-58
2021/07/05 07:52:37;;;;;;;6.40;4.13;;;;;;;;;;6217150;23;20011;-59
2021/07/05 07:55:07;;;;;;;4.05;3.65;;;;;;;;;;6217218;23;20004;-59
2021/07/05 07:57:32;;;;;;;4.90;3.80;;;;;;;;;;6217127;23;19996;-59
2021/07/05 07:59:58;;;;;;;4.28;3.97;;;;;;;;;;6217126;23;20232;-58
2021/07/05 08:02:24;;;;;;;4.15;3.85;;;;;;;;;;6217103;23;20076;-58
2021/07/05 08:04:49;;;;;;;3.97;3.67;;;;;;;;;;6216796;23;20028;-58
2021/07/05 08:07:15;;;;;;;4.40;4.10;;;;;;;;;;6217005;23;19996;-58
2021/07/05 08:09:40;;;;;;;4.57;4.18;;;;;;;;;;6216970;23;20031;-59
2021/07/05 08:12:07;;;;;;;5.55;3.90;;;;;;;;;;6217595;23;20000;-59
2021/07/05 08:14:33;;;;;;;4.22;3.92;;;;;;;;;;6247324;23;20016;-58
2021/07/05 08:16:59;;;;;;;5.20;4.70;;;;;;;;;;6247256;23;20138;-58
2021/07/05 08:19:24;;;;;;;5.25;4.00;;;;;;;;;;6246982;23;20015;-58
2021/07/05 08:21:50;;;;;;;4.28;3.97;;;;;;;;;;6220516;23;20008;-58
2021/07/05 08:24:15;;;;;;;4.60;4.20;;;;;;;;;;6220470;23;20008;-59
2021/07/05 08:26:41;;;;;;;4.38;3.97;;;;;;;;;;6247198;23;20015;-59
2021/07/05 08:29:07;;;;;;;4.35;4.00;;;;;;;;;;6246940;23;20000;-58
2021/07/05 08:31:32;;;;;;;4.40;4.00;;;;;;;;;;6247088;23;20050;-58
2021/07/05 08:34:00;;;;;;;4.20;3.88;;;;;;;;;;6247029;23;20027;-58
2021/07/05 08:36:26;;;;;;;4.45;4.10;;;;;;;;;;6246993;23;20035;-58
2021/07/05 08:38:51;;;;;;;4.60;4.20;;;;;;;;;;6247124;23;20054;-58
2021/07/05 08:41:17;;;;;;;6.22;4.00;;;;;;;;;;6247065;23;19991;-58
2021/07/05 08:43:43;;;;;;;5.35;4.00;;;;;;;;;;6247032;23;20443;-58
2021/07/05 08:46:09;;;;;;;4.95;3.72;;;;;;;;;;6246728;23;20438;-58
2021/07/05 08:48:38;;;;;;;4.95;4.50;;;;;;;;;;6247048;23;20004;-59
2021/07/05 08:51:05;;;;;;;4.10;3.80;;;;;;;;;;6247187;23;20007;-59
2021/07/05 08:53:30;;;;;;;4.63;4.05;;;;;;;;;;6220028;23;20301;-58
2021/07/05 08:55:56;;;;;;;4.18;3.80;;;;;;;;;;6246915;23;20011;-58
2021/07/05 08:58:21;;;;;;;4.55;3.88;;;;;;;;;;6246942;23;20091;-58
2021/07/05 09:00:47;;;;;;;4.25;3.95;;;;;;;;;;6246971;23;20069;-58
2021/07/05 09:03:13;;;;;;;4.70;4.22;;;;;;;;;;6246963;23;20003;-58
2021/07/05 09:05:38;;;;;;;4.50;4.18;;;;;;;;;;6246718;23;20008;-58
2021/07/05 09:08:11;;;;;;;4.32;4.03;;;;;;;;;;6246834;23;20019;-59
2021/07/05 09:10:48;;;;;;;4.60;4.30;;;;;;;;;;6219859;23;20010;-58
2021/07/05 09:13:15;;;;;;;4.65;4.25;;;;;;;;;;6246434;23;20063;-59
2021/07/05 09:15:51;;;;;;;4.57;4.20;;;;;;;;;;6246753;23;20075;-59
2021/07/05 09:18:35;;;;;;;4.80;4.40;;;;;;;;;;6246841;23;20012;-58
2021/07/05 09:21:12;;;;;;;4.03;3.80;;;;;;;;;;6246741;23;20406;-59
2021/07/05 09:23:51;;;;;;;4.18;3.88;;;;;;;;;;6246610;23;20004;-58
2021/07/05 09:26:21;;;;;;;4.45;4.10;;;;;;;;;;6219929;23;20011;-58
2021/07/05 09:28:46;;;;;;;3.92;3.63;;;;;;;;;;6219866;23;20087;-59
2021/07/05 09:31:12;;;;;;;4.32;4.05;;;;;;;;;;6246473;23;20034;-59
2021/07/05 09:33:44;;;;;;;4.15;3.85;;;;;;;;;;6246545;23;20008;-59
2021/07/05 09:36:18;;;;;;;4.55;4.15;;;;;;;;;;6246552;23;20348;-58
2021/07/05 09:38:44;;;;;;;4.75;4.32;;;;;;;;;;6246560;23;20004;-59
2021/07/05 09:41:27;;;;;;;5.60;4.43;;;;;;;;;;6246179;23;20004;-58
2021/07/05 09:43:55;;;;;;;4.45;4.07;;;;;;;;;;6246433;23;20028;-59
2021/07/05 09:46:41;;;;;;;6.63;4.72;;;;;;;;;;6246394;23;20000;-58
2021/07/05 09:49:12;;;;;;;5.07;4.57;;;;;;;;;;6219676;23;20005;-58
2021/07/05 09:51:39;;;;;;;5.72;4.68;;;;;;;;;;6246290;23;20008;-58
2021/07/05 09:54:06;;;;;;;4.78;4.43;;;;;;;;;;6246244;23;19996;-58
2021/07/05 09:56:32;;;;;;;6.28;5.50;;;;;;;;;;6246171;23;20034;-58
2021/07/05 09:58:59;;;;;;;5.50;4.97;;;;;;;;;;6246168;23;20003;-59
2021/07/05 10:01:39;;;;;;;6.35;5.65;;;;;;;;;;6246108;23;20306;-58
2021/07/05 10:04:09;;;;;;;8.67;5.23;;;;;;;;;;6246289;23;20015;-59
2021/07/05 10:06:38;;;;;;;8.27;5.55;;;;;;;;;;6245907;23;20008;-60
2021/07/05 10:09:03;;;;;;;7.18;5.43;;;;;;;;;;6246200;23;20011;-58
2021/07/05 10:11:29;;;;;;;8.90;5.28;;;;;;;;;;6246263;23;20000;-58
2021/07/05 10:14:09;;;;;;;6.38;4.80;;;;;;;;;;6245926;23;20436;-58
2021/07/05 10:16:34;;;;;;;5.63;5.13;;;;;;;;;;6246229;23;20336;-59
2021/07/05 10:19:00;;;;;;;6.28;5.18;;;;;;;;;;6246133;23;20032;-58
2021/07/05 10:21:25;;;;;;;5.75;5.25;;;;;;;;;;6246103;23;20031;-59
2021/07/05 10:23:52;;;;;;;6.53;4.82;;;;;;;;;;6246033;23;19996;-59
2021/07/05 10:26:19;;;;;;;5.28;4.72;;;;;;;;;;6218964;23;20012;-59
2021/07/05 10:28:44;;;;;;;5.40;4.88;;;;;;;;;;6219516;23;19999;-58
2021/07/05 10:31:11;;;;;;;6.57;5.25;;;;;;;;;;6246118;23;20000;-58
2021/07/05 10:33:36;;;;;;;4.75;4.30;;;;;;;;;;6245966;23;20306;-59
2021/07/05 10:36:02;;;;;;;6.40;5.15;;;;;;;;;;6245857;23;20015;-58
2021/07/05 10:38:34;;;;;;;5.35;4.85;;;;;;;;;;6246070;23;20074;-58
2021/07/05 10:41:01;;;;;;;6.47;4.55;;;;;;;;;;6246066;23;20016;-58
2021/07/05 10:43:46;;;;;;;4.07;3.78;;;;;;;;;;6246089;23;19999;-58
2021/07/05 10:46:31;;;;;;;3.90;3.60;;;;;;;;;;6219249;23;20106;-59
2021/07/05 10:48:57;;;;;;;4.25;4.00;;;;;;;;;;6246050;23;20015;-58
2021/07/05 10:51:22;;;;;;;3.97;3.67;;;;;;;;;;6245970;23;19996;-58
2021/07/05 10:53:48;;;;;;;4.30;4.00;;;;;;;;;;6245792;23;20004;-58
2021/07/05 10:56:29;;;;;;;3.90;3.60;;;;;;;;;;6245831;23;20054;-59
2021/07/05 10:59:15;;;;;;;4.55;4.13;;;;;;;;;;6245850;23;20079;-59
2021/07/05 11:01:42;;;;;;;5.18;3.80;;;;;;;;;;6245151;23;20095;-58
2021/07/05 11:04:20;;;;;;;4.35;3.83;;;;;;;;;;6245518;23;19996;-59
2021/07/05 11:06:46;;;;;;;3.83;3.58;;;;;;;;;;6245991;23;20008;-59
2021/07/05 11:09:19;;;;;;;4.18;3.88;;;;;;;;;;6245778;23;19996;-58
2021/07/05 11:11:46;;;;;;;4.15;3.85;;;;;;;;;;6245810;23;20004;-59
2021/07/05 11:14:17;;;;;;;4.50;4.20;;;;;;;;;;6245674;23;20023;-58
2021/07/05 11:17:03;;;;;;;4.40;4.10;;;;;;;;;;6245963;23;20004;-58
2021/07/05 11:19:33;;;;;;;4.45;4.07;;;;;;;;;;6245714;23;20071;-59
2021/07/05 11:22:00;;;;;;;5.03;4.63;;;;;;;;;;6245670;23;20328;-59
2021/07/05 11:24:32;;;;;;;4.78;4.40;;;;;;;;;;6245696;23;20004;-59
2021/07/05 11:27:18;;;;;;;5.25;4.78;;;;;;;;;;6245548;23;20455;-58
2021/07/05 11:29:46;;;;;;;5.10;4.70;;;;;;;;;;6245706;23;20050;-58
2021/07/05 11:32:12;;;;;;;4.85;4.45;;;;;;;;;;6245681;23;19992;-59
2021/07/05 11:34:45;;;;;;;4.32;4.03;;;;;;;;;;6218953;23;20004;-58
2021/07/05 11:37:10;;;;;;;4.00;3.75;;;;;;;;;;6245774;23;20004;-58
2021/07/05 11:39:36;;;;;;;5.05;3.90;;;;;;;;;;6245652;23;20424;-58
2021/07/05 11:42:01;;;;;;;5.10;4.70;;;;;;;;;;6245656;23;20008;-58
2021/07/05 11:44:45;;;;;;;4.95;4.55;;;;;;;;;;6245573;23;19997;-58
2021/07/05 11:47:11;;;;;;;4.47;4.18;;;;;;;;;;6245539;23;20004;-58
2021/07/05 11:49:36;;;;;;;5.22;4.72;;;;;;;;;;6245755;23;20067;-59
2021/07/05 11:52:02;;;;;;;8.63;4.68;;;;;;;;;;6245627;23;20004;-58
2021/07/05 11:54:35;;;;;;;5.38;4.57;;;;;;;;;;6245567;23;20003;-58
2021/07/05 11:57:02;;;;;;;4.82;4.43;;;;;;;;;;6245607;23;20016;-58
2021/07/05 11:59:29;;;;;;;4.78;4.38;;;;;;;;;;6245199;23;20004;-59
2021/07/05 12:02:06;;;;;;;7.93;4.82;;;;;;;;;;6245434;23;20040;-58
2021/07/05 12:04:31;;;;;;;5.30;4.72;;;;;;;;;;6247106;23;20004;-58
2021/07/05 12:06:56;;;;;;;5.47;4.97;;;;;;;;;;6247371;23;20420;-58
2021/07/05 12:09:32;;;;;;;5.43;5.00;;;;;;;;;;6247364;23;20028;-59
2021/07/05 12:11:58;;;;;;;6.88;5.25;;;;;;;;;;6247397;23;20023;-58
2021/07/05 12:14:25;;;;;;;5.60;4.97;;;;;;;;;;6247265;23;20015;-58
2021/07/05 12:16:52;;;;;;;6.15;5.05;;;;;;;;;;6247341;23;20004;-58
2021/07/05 12:19:18;;;;;;;5.50;5.05;;;;;;;;;;6247332;23;19999;-59
2021/07/05 12:21:48;;;;;;;7.65;5.57;;;;;;;;;;6247326;23;20000;-58
2021/07/05 12:24:13;;;;;;;5.97;5.33;;;;;;;;;;6247236;23;19996;-58
2021/07/05 12:26:39;;;;;;;6.13;5.22;;;;;;;;;;6247370;23;20035;-59
2021/07/05 12:29:06;;;;;;;6.03;5.50;;;;;;;;;;6247291;23;19992;-59
2021/07/05 12:31:32;;;;;;;5.57;5.10;;;;;;;;;;6220306;23;20007;-58
2021/07/05 12:34:00;;;;;;;6.90;5.30;;;;;;;;;;6220294;23;19992;-59
2021/07/05 12:36:25;;;;;;;6.88;5.18;;;;;;;;;;6247016;23;20463;-58
2021/07/05 12:39:03;;;;;;;5.53;5.00;;;;;;;;;;6220373;23;19996;-58
2021/07/05 12:41:30;;;;;;;5.32;4.93;;;;;;;;;;6247045;23;20058;-59
2021/07/05 12:44:09;;;;;;;5.38;4.80;;;;;;;;;;6247136;23;20050;-58
2021/07/05 12:46:35;;;;;;;6.35;5.10;;;;;;;;;;6247131;23;20090;-58
2021/07/05 12:49:00;;;;;;;6.05;5.35;;;;;;;;;;6247101;23;20432;-59
2021/07/05 12:51:26;;;;;;;5.38;4.88;;;;;;;;;;6247064;23;20018;-58
2021/07/05 12:53:51;;;;;;;6.53;5.30;;;;;;;;;;6246424;23;20071;-59
2021/07/05 12:56:22;;;;;;;5.60;5.10;;;;;;;;;;6246991;23;20383;-58
2021/07/05 12:58:48;;;;;;;6.40;5.50;;;;;;;;;;6246939;23;20114;-59
2021/07/05 13:01:15;;;;;;;5.85;5.32;;;;;;;;;;6246743;23;20094;-59
2021/07/05 13:03:54;;;;;;;5.70;5.28;;;;;;;;;;6246870;23;20008;-59
2021/07/05 13:06:20;;;;;;;5.53;5.10;;;;;;;;;;6219809;23;20349;-58
2021/07/05 13:08:45;;;;;;;6.57;5.45;;;;;;;;;;6246826;23;19999;-58
2021/07/05 13:11:12;;;;;;;7.55;6.28;;;;;;;;;;6246751;23;20000;-58
2021/07/05 13:13:38;;;;;;;7.35;5.85;;;;;;;;;;6246259;23;20064;-59
2021/07/05 13:16:15;;;;;;;6.65;5.40;;;;;;;;;;6246117;23;20057;-59
2021/07/05 13:18:40;;;;;;;6.82;5.50;;;;;;;;;;6246848;23;20019;-58
2021/07/05 13:21:06;;;;;;;6.38;5.47;;;;;;;;;;6246563;23;20000;-58
2021/07/05 13:23:40;;;;;;;7.32;5.93;;;;;;;;;;6246452;23;20008;-58
2021/07/05 13:26:07;;;;;;;7.10;5.55;;;;;;;;;;6246480;23;20482;-58
2021/07/05 13:28:33;;;;;;;9.27;6.07;;;;;;;;;;6219737;23;19996;-59
2021/07/05 13:30:59;;;;;;;7.47;5.68;;;;;;;;;;6246604;23;20000;-58
2021/07/05 13:33:34;;;;;;;6.47;5.88;;;;;;;;;;6246644;23;19999;-59
2021/07/05 13:36:00;;;;;;;6.53;5.70;;;;;;;;;;6246596;23;20042;-58
2021/07/05 13:38:28;;;;;;;6.90;6.38;;;;;;;;;;6246500;23;20003;-59
2021/07/05 13:40:55;;;;;;;6.22;5.63;;;;;;;;;;6246538;23;20083;-58
2021/07/05 13:43:21;;;;;;;7.38;5.65;;;;;;;;;;6246521;23;20007;-59
2021/07/05 13:45:49;;;;;;;6.18;5.55;;;;;;;;;;6246392;23;20063;-59
2021/07/05 13:48:16;;;;;;;5.93;5.43;;;;;;;;;;6246300;23;20046;-59
2021/07/05 13:50:49;;;;;;;5.93;5.43;;;;;;;;;;6246465;23;20066;-59
2021/07/05 13:53:24;;;;;;;6.88;5.72;;;;;;;;;;6219595;23;20515;-58
2021/07/05 13:55:55;;;;;;;5.97;5.47;;;;;;;;;;6246313;23;20086;-58
2021/07/05 13:58:22;;;;;;;6.05;5.55;;;;;;;;;;6246173;23;20015;-59
2021/07/05 14:00:53;;;;;;;6.03;5.50;;;;;;;;;;6246220;23;20004;-58
2021/07/05 14:03:19;;;;;;;6.03;5.53;;;;;;;;;;6246262;23;20440;-58
2021/07/05 14:05:46;;;;;;;7.03;5.60;;;;;;;;;;6246090;23;19996;-58
2021/07/05 14:08:12;;;;;;;5.97;5.57;;;;;;;;;;6246186;23;20499;-58
2021/07/05 14:10:38;;;;;;;6.32;5.80;;;;;;;;;;6219443;23;20027;-58
2021/07/05 14:13:05;;;;;;;5.95;5.47;;;;;;;;;;6245774;23;20019;-59
2021/07/05 14:15:31;;;;;;;5.90;5.35;;;;;;;;;;6246653;23;20027;-59
2021/07/05 14:17:57;;;;;;;5.65;5.18;;;;;;;;;;6246727;23;20000;-58
2021/07/05 14:20:23;;;;;;;6.30;5.70;;;;;;;;;;6245862;23;20050;-59
2021/07/05 14:22:48;;;;;;;6.75;5.85;;;;;;;;;;6246034;23;20000;-59
2021/07/05 14:25:15;;;;;;;5.55;5.15;;;;;;;;;;6245721;23;20004;-59
2021/07/05 14:27:41;;;;;;;7.65;6.28;;;;;;;;;;6246197;23;19996;-59
2021/07/05 14:30:08;;;;;;;5.97;5.47;;;;;;;;;;6246206;23;20031;-58
2021/07/05 14:32:34;;;;;;;6.00;5.57;;;;;;;;;;6219331;23;19996;-58
2021/07/05 14:34:59;;;;;;;5.85;5.35;;;;;;;;;;6219143;23;20332;-59
2021/07/05 14:37:24;;;;;;;6.05;5.55;;;;;;;;;;6245907;23;20003;-58
2021/07/05 14:39:50;;;;;;;6.65;6.05;;;;;;;;;;6246124;23;20032;-59
2021/07/05 14:42:15;;;;;;;5.82;5.43;;;;;;;;;;6246355;23;20000;-59
2021/07/05 14:44:44;;;;;;;7.40;6.15;;;;;;;;;;6245880;23;20447;-58